Time;durP1;ratioP1;P1;durP2;ratioP2;P2;SDS_P1;SDS_P2;PMS_P1;PMS_P2;Temp;Humidity;BMP_temperature;BMP_pressure;BME280_temperature;BME280_humidity;BME280_pressure;Samples;Min_cycle;Max_cycle;Signal;HPM_P1;HPM_P2
2022/09/02 00:01:39;;;;;;;4.55;1.95;;;14.70;99.90;;;;;;5009368;28;20482;-76
2022/09/02 00:04:13;;;;;;;3.53;1.77;;;;;;;;;;5010286;28;20413;-76
2022/09/02 00:06:40;;;;;;;3.08;1.60;;;;;;;;;;5006622;28;20424;-76
2022/09/02 00:09:07;;;;;;;4.47;1.67;;;;;;;;;;4992841;28;20473;-75
2022/09/02 00:11:35;;;;;;;3.17;1.70;;;14.70;99.90;;;;;;5008509;28;20781;-76
2022/09/02 00:14:03;;;;;;;3.40;1.60;;;;;;;;;;5007624;28;20856;-76
2022/09/02 00:16:30;;;;;;;4.90;1.58;;;;;;;;;;4992777;28;20432;-76
2022/09/02 00:18:56;;;;;;;4.43;1.65;;;;;;;;;;5007556;28;20424;-76
2022/09/02 00:21:23;;;;;;;2.47;1.60;;;14.70;99.90;;;;;;4992953;28;20447;-75
2022/09/02 00:23:49;;;;;;;4.85;1.70;;;14.60;99.90;;;;;;4992391;28;20435;-74
2022/09/02 00:26:15;;;;;;;2.88;1.60;;;14.50;99.90;;;;;;5009442;28;20911;-75
2022/09/02 00:28:42;;;;;;;5.93;1.52;;;14.50;99.90;;;;;;5005793;28;20427;-75
2022/09/02 00:31:08;;;;;;;4.72;1.50;;;14.40;99.90;;;;;;5009326;28;20408;-75
2022/09/02 00:33:34;;;;;;;4.53;1.60;;;;;;;;;;5007281;28;20438;-75
2022/09/02 00:36:01;;;;;;;3.53;1.60;;;;;;;;;;5009207;28;20412;-75
2022/09/02 00:38:30;;;;;;;3.15;1.48;;;14.60;99.90;;;;;;5008687;28;20428;-75
2022/09/02 00:40:56;;;;;;;3.30;1.63;;;;;;;;;;4993039;28;20504;-75
2022/09/02 00:43:37;;;;;;;3.30;1.60;;;;;;;;;;5006253;28;20434;-75
2022/09/02 00:46:03;;;;;;;2.90;1.70;;;;;;;;;;5007259;28;20424;-74
2022/09/02 00:48:29;;;;;;;2.95;1.48;;;;;;;;;;5009706;28;20401;-75
2022/09/02 00:50:56;;;;;;;3.90;1.60;;;;;;;;;;5008814;28;20978;-75
2022/09/02 00:53:22;;;;;;;3.03;1.80;;;;;;;;;;5007764;28;20425;-75
2022/09/02 00:55:49;;;;;;;2.80;1.98;;;14.40;99.90;;;;;;5009553;28;20490;-74
2022/09/02 00:58:25;;;;;;;3.88;1.95;;;14.30;99.90;;;;;;5005707;28;20509;-75
2022/09/02 01:00:56;;;;;;;4.85;2.00;;;;;;;;;;4992170;28;20455;-75
2022/09/02 01:03:26;;;;;;;4.53;2.03;;;14.20;99.90;;;;;;4992030;28;20785;-74
2022/09/02 01:05:53;;;;;;;2.95;1.73;;;;;;;;;;5009156;28;20540;-75
2022/09/02 01:08:28;;;;;;;3.40;1.90;;;;;;;;;;4973016;28;20420;-74
2022/09/02 01:10:55;;;;;;;3.72;2.00;;;13.90;99.90;;;;;;4990919;28;20429;-75
2022/09/02 01:13:24;;;;;;;3.65;1.75;;;;;;;;;;5006836;28;20429;-74
2022/09/02 01:15:57;;;;;;;4.95;1.88;;;14.00;99.90;;;;;;5008016;28;20504;-75
2022/09/02 01:18:28;;;;;;;5.20;2.00;;;14.20;99.90;;;;;;4991435;28;20529;-74
2022/09/02 01:20:54;;;;;;;4.35;1.92;;;;;;;;;;5007911;28;20429;-74
2022/09/02 01:23:20;;;;;;;5.05;2.00;;;;;;;;;;5007342;28;20430;-74
2022/09/02 01:25:46;;;;;;;5.05;1.88;;;;;;;;;;5007772;28;20806;-74
2022/09/02 01:28:15;;;;;;;7.63;2.10;;;;;;;;;;5008744;28;20802;-74
2022/09/02 01:30:43;;;;;;;3.85;1.92;;;;;;;;;;4990457;28;20511;-74
2022/09/02 01:33:10;;;;;;;3.70;1.80;;;;;;;;;;5006253;28;20928;-74
2022/09/02 01:35:36;;;;;;;4.63;1.90;;;;;;;;;;5006716;28;20429;-75
2022/09/02 01:38:03;;;;;;;6.38;1.90;;;;;;;;;;4992126;28;20781;-74
2022/09/02 01:40:30;;;;;;;4.43;1.85;;;13.70;99.90;;;;;;5006113;28;20467;-73
2022/09/02 01:43:04;;;;;;;3.50;1.85;;;13.70;99.90;;;;;;5004296;28;20429;-74
2022/09/02 01:45:29;;;;;;;3.85;1.95;;;13.70;99.90;;;;;;5007874;28;20412;-74
2022/09/02 01:47:55;;;;;;;8.53;2.03;;;;;;;;;;5005557;28;20432;-74
2022/09/02 01:50:22;;;;;;;4.20;1.92;;;;;;;;;;4991096;28;20431;-74
2022/09/02 06:15:11;;;;;;;4.97;2.10;;;;;;;;;;4776305;27;11075147;-79
2022/09/02 06:17:37;;;;;;;4.47;2.20;;;;;;;;;;5131728;27;20422;-79
2022/09/02 06:20:03;;;;;;;4.63;2.30;;;;;;;;;;5131550;27;20431;-80
2022/09/02 06:22:29;;;;;;;3.60;2.10;;;14.30;99.90;;;;;;5131264;27;20421;-78
2022/09/02 06:24:58;;;;;;;4.33;2.33;;;;;;;;;;5128126;27;21917;-79
2022/09/02 06:27:24;;;;;;;3.30;2.00;;;;;;;;;;5111186;27;20405;-82
2022/09/02 06:29:50;;;;;;;4.87;2.23;;;;;;;;;;5076763;27;20569;-81
2022/09/02 06:32:16;;;;;;;4.65;2.15;;;;;;;;;;5096651;27;20747;-82
2022/09/02 06:34:42;;;;;;;4.88;2.20;;;;;;;;;;5113667;27;20808;-82
2022/09/02 06:37:08;;;;;;;4.07;2.05;;;14.70;99.90;;;;;;5132753;27;21002;-79
2022/09/02 06:39:36;;;;;;;4.97;2.20;;;;;;;;;;5109537;27;20457;-83
2022/09/02 06:42:02;;;;;;;3.90;2.00;;;;;;;;;;5126005;27;20432;-82
2022/09/02 06:44:28;;;;;;;5.28;2.13;;;;;;;;;;5093785;28;20496;-84
2022/09/02 06:46:58;;;;;;;4.40;2.10;;;;;;;;;;5094939;28;20482;-79
2022/09/02 06:49:25;;;;;;;4.95;2.20;;;;;;;;;;5112153;28;20957;-80
2022/09/02 06:51:53;;;;;;;4.18;2.15;;;15.40;99.90;;;;;;5118457;28;20513;-80
2022/09/02 06:54:20;;;;;;;6.03;2.30;;;15.40;99.90;;;;;;5113915;27;20410;-78
2022/09/02 06:56:47;;;;;;;5.30;2.35;;;;;;;;;;5119702;28;20443;-80
2022/09/02 06:59:14;;;;;;;7.35;2.40;;;;;;;;;;5099957;27;20446;-79
2022/09/02 07:01:39;;;;;;;4.07;2.20;;;15.90;99.90;;;;;;5110224;28;20422;-79
2022/09/02 07:06:51;;;;;;;3.92;1.90;;;;;;;;;;5129658;27;20428;-79
2022/09/02 07:09:21;;;;;;;4.53;1.92;;;16.30;99.90;;;;;;5114664;27;20958;-79
2022/09/02 07:11:47;;;;;;;4.97;2.10;;;16.10;99.90;;;;;;5118002;27;21108;-79
2022/09/02 07:14:15;;;;;;;4.88;2.00;;;;;;;;;;5094069;28;20427;-80
2022/09/02 07:16:46;;;;;;;4.60;2.00;;;16.30;99.90;;;;;;5114099;27;20450;-79
2022/09/02 07:19:13;;;;;;;4.68;1.90;;;;;;;;;;5131926;27;20422;-78
2022/09/02 07:21:40;;;;;;;4.30;2.15;;;;;;;;;;5093776;27;20449;-79
2022/09/02 07:24:07;;;;;;;4.40;1.83;;;;;;;;;;5112621;27;20410;-79
2022/09/02 07:26:33;;;;;;;6.50;1.90;;;;;;;;;;5106788;27;20421;-80
2022/09/02 07:28:59;;;;;;;7.70;2.00;;;;;;;;;;5066880;28;20424;-80
2022/09/02 07:31:29;;;;;;;4.65;2.00;;;;;;;;;;5096700;27;20742;-80
2022/09/02 07:33:58;;;;;;;3.40;1.80;;;17.50;99.90;;;;;;5110166;28;20420;-81
2022/09/02 07:36:25;;;;;;;4.93;1.90;;;;;;;;;;5116999;27;20391;-80
2022/09/02 07:38:52;;;;;;;3.30;1.70;;;17.50;99.90;;;;;;5095482;27;20421;-79
2022/09/02 07:41:19;;;;;;;2.67;1.60;;;17.90;99.90;;;;;;5113497;27;20835;-80
2022/09/02 07:43:48;;;;;;;3.28;1.83;;;;;;;;;;5069847;28;20416;-79
2022/09/02 07:46:14;;;;;;;4.07;1.88;;;;;;;;;;5075085;28;20428;-80
2022/09/02 07:48:41;;;;;;;4.17;1.70;;;18.40;99.90;;;;;;5094446;27;20886;-79
2022/09/02 07:51:07;;;;;;;3.95;2.05;;;18.10;99.90;;;;;;5096480;28;20424;-79
2022/09/02 07:53:33;;;;;;;3.45;1.85;;;;;;;;;;5113659;27;20433;-76
2022/09/02 07:56:00;;;;;;;4.75;1.80;;;18.40;99.90;;;;;;5096035;27;20505;-78
2022/09/02 07:58:26;;;;;;;4.18;1.65;;;18.00;99.90;;;;;;5104029;28;20416;-78
2022/09/02 08:00:55;;;;;;;4.22;1.77;;;18.70;99.90;;;;;;5096741;28;20398;-78
2022/09/02 08:03:23;;;;;;;3.05;1.80;;;18.70;99.90;;;;;;5080020;28;20821;-78
2022/09/02 08:05:49;;;;;;;5.60;1.92;;;;;;;;;;5099304;27;20414;-79
2022/09/02 08:08:19;;;;;;;9.17;1.90;;;19.00;99.90;;;;;;5090663;28;20808;-79
2022/09/02 08:10:46;;;;;;;5.35;1.83;;;19.20;99.90;;;;;;5095785;28;20395;-77
2022/09/02 08:13:12;;;;;;;3.47;1.63;;;19.40;99.90;;;;;;5078504;28;20496;-78
2022/09/02 08:15:39;;;;;;;5.82;1.63;;;19.30;99.90;;;;;;5078854;28;20402;-80
2022/09/02 08:18:06;;;;;;;3.70;1.83;;;19.00;99.90;;;;;;5096428;28;20907;-77
2022/09/02 08:20:32;;;;;;;4.22;1.60;;;19.50;99.90;;;;;;5098981;28;20428;-82
2022/09/02 08:22:58;;;;;;;5.63;1.63;;;19.70;99.90;;;;;;5056440;28;20819;-83
2022/09/02 08:25:24;;;;;;;3.10;1.50;;;19.80;99.90;;;;;;5044051;28;20757;-82
2022/09/02 08:27:51;;;;;;;3.33;1.58;;;19.80;99.90;;;;;;5095786;27;20429;-80
2022/09/02 08:30:17;;;;;;;4.35;1.70;;;19.80;99.90;;;;;;5105078;28;20447;-81
2022/09/02 08:32:43;;;;;;;4.05;1.40;;;19.90;99.90;;;;;;5067533;27;20415;-80
2022/09/02 08:35:10;;;;;;;2.92;1.48;;;19.50;99.90;;;;;;5116200;27;20460;-80
2022/09/02 08:37:36;;;;;;;8.17;1.70;;;19.60;99.90;;;;;;5085762;28;20483;-80
2022/09/02 08:40:06;;;;;;;3.20;1.50;;;19.70;99.90;;;;;;5084834;27;20419;-82
2022/09/02 08:42:43;;;;;;;4.00;1.58;;;20.40;99.90;;;;;;5075623;27;20437;-81
2022/09/02 08:45:36;;;;;;;4.20;1.67;;;20.10;99.90;;;;;;5093825;27;20397;-80
2022/09/02 08:48:16;;;;;;;6.53;1.70;;;20.30;99.90;;;;;;5100090;28;20431;-79
2022/09/02 08:50:46;;;;;;;3.92;1.50;;;20.40;99.90;;;;;;5099236;27;20434;-79
2022/09/02 08:53:25;;;;;;;3.67;1.40;;;20.60;99.90;;;;;;5096557;28;20418;-79
2022/09/02 08:55:54;;;;;;;4.90;1.60;;;20.80;99.90;;;;;;5075292;28;20410;-78
2022/09/02 08:58:23;;;;;;;4.17;1.40;;;20.70;99.90;;;;;;5077057;28;20454;-78
2022/09/02 09:00:57;;;;;;;5.07;1.42;;;21.00;99.90;;;;;;5096566;27;20809;-77
2022/09/02 09:03:51;;;;;;;6.40;1.38;;;21.10;99.90;;;;;;5076737;28;20969;-78
2022/09/02 09:06:25;;;;;;;4.32;1.60;;;21.30;99.90;;;;;;5098331;27;21028;-77
2022/09/02 09:09:20;;;;;;;4.45;1.80;;;21.60;99.90;;;;;;5101386;27;20429;-77
2022/09/02 09:12:16;;;;;;;3.43;1.60;;;21.20;99.90;;;;;;5067054;27;20522;-77
2022/09/02 09:15:11;;;;;;;9.85;1.80;;;21.20;99.90;;;;;;5091892;28;20932;-77
2022/09/02 09:18:08;;;;;;;4.38;1.50;;;21.20;99.90;;;;;;5006774;28;20424;-77
2022/09/02 09:20:40;;;;;;;5.30;1.50;;;21.20;99.90;;;;;;5071125;28;20416;-76
2022/09/02 09:23:21;;;;;;;6.40;1.55;;;21.40;99.90;;;;;;5102346;27;20901;-80
2022/09/02 09:25:49;;;;;;;4.40;1.40;;;21.80;99.90;;;;;;5094220;27;20539;-78
2022/09/02 09:28:15;;;;;;;5.32;1.63;;;21.50;99.90;;;;;;5093038;28;20790;-78
2022/09/02 09:30:41;;;;;;;6.33;1.40;;;22.00;99.90;;;;;;5101437;27;20508;-78
2022/09/02 09:33:12;;;;;;;7.90;1.77;;;21.70;99.90;;;;;;5101041;27;20427;-79
2022/09/02 09:35:52;;;;;;;5.30;1.60;;;21.80;99.90;;;;;;5109786;27;20479;-78
2022/09/02 09:38:31;;;;;;;3.63;1.60;;;22.30;99.90;;;;;;5074152;28;20592;-78
2022/09/02 09:41:11;;;;;;;6.90;1.70;;;22.10;99.90;;;;;;5080558;27;20449;-78
2022/09/02 09:43:36;;;;;;;7.18;1.95;;;22.30;99.90;;;;;;5093191;27;20426;-78
2022/09/02 09:46:31;;;;;;;8.27;1.83;;;22.00;99.90;;;;;;5068163;27;20422;-77
2022/09/02 09:48:57;;;;;;;4.85;1.50;;;21.80;99.90;;;;;;5077055;28;20433;-78
2022/09/02 09:51:23;;;;;;;2.90;1.50;;;22.20;99.90;;;;;;5073918;28;20983;-77
2022/09/02 09:53:49;;;;;;;5.45;1.58;;;22.00;99.90;;;;;;5083449;27;20446;-77
2022/09/02 09:56:15;;;;;;;5.30;1.47;;;23.00;99.90;;;;;;5089443;28;20534;-75
2022/09/02 09:58:46;;;;;;;5.33;1.60;;;23.10;99.90;;;;;;5081198;28;20484;-77
2022/09/02 10:01:19;;;;;;;6.75;1.40;;;22.70;99.90;;;;;;5085744;28;20416;-77
2022/09/02 10:03:55;;;;;;;5.95;1.50;;;22.70;99.90;;;;;;5086305;28;21917;-77
2022/09/02 10:06:32;;;;;;;5.82;1.38;;;22.50;99.90;;;;;;5070686;28;20938;-76
2022/09/02 10:09:02;;;;;;;9.13;1.50;;;23.10;99.90;;;;;;5085555;28;20420;-76
2022/09/02 10:11:35;;;;;;;6.40;2.03;;;22.50;99.90;;;;;;5087454;28;20437;-76
2022/09/02 10:14:08;;;;;;;2.63;1.40;;;22.90;99.90;;;;;;5087634;28;20569;-74
2022/09/02 10:16:58;;;;;;;4.20;1.40;;;22.80;99.90;;;;;;5068280;28;20760;-76
2022/09/02 10:19:36;;;;;;;7.33;1.67;;;22.80;99.90;;;;;;5065221;28;20412;-75
2022/09/02 10:22:22;;;;;;;3.65;1.27;;;22.90;99.90;;;;;;5066324;28;20432;-75
2022/09/02 10:25:03;;;;;;;3.53;1.25;;;23.20;99.90;;;;;;5009369;28;20488;-75
2022/09/02 10:27:59;;;;;;;4.68;1.40;;;23.10;99.90;;;;;;5007598;28;20925;-76
2022/09/02 10:30:27;;;;;;;2.38;1.10;;;21.30;99.90;;;;;;5012833;28;20436;-76
2022/09/02 10:33:27;;;;;;;5.18;1.40;;;23.20;99.90;;;;;;5026077;28;20409;-76
2022/09/02 10:36:10;;;;;;;5.72;1.40;;;23.80;99.90;;;;;;5006924;28;20919;-76
2022/09/02 10:38:45;;;;;;;4.28;1.45;;;23.90;99.90;;;;;;5009576;28;20425;-76
2022/09/02 10:41:19;;;;;;;8.47;1.60;;;23.90;99.90;;;;;;5024200;28;20955;-76
2022/09/02 10:44:02;;;;;;;2.55;1.20;;;23.60;99.90;;;;;;5026147;28;20429;-75
2022/09/02 10:46:41;;;;;;;3.90;1.30;;;23.80;99.90;;;;;;5027095;28;20456;-75
2022/09/02 10:49:25;;;;;;;4.03;1.23;;;22.80;99.90;;;;;;4992652;28;20912;-75
2022/09/02 10:52:32;;;;;;;4.53;1.33;;;23.50;99.90;;;;;;5022550;28;20947;-75
2022/09/02 10:55:13;;;;;;;7.30;1.40;;;23.70;99.90;;;;;;5018433;28;20446;-75
2022/09/02 10:58:08;;;;;;;3.35;1.30;;;24.00;99.90;;;;;;5085964;28;20415;-75
2022/09/02 11:00:44;;;;;;;6.40;1.20;;;24.40;99.90;;;;;;5086168;28;20449;-76
2022/09/02 11:03:29;;;;;;;5.43;1.60;;;23.70;99.90;;;;;;5071077;28;20413;-76
2022/09/02 11:06:29;;;;;;;6.90;1.38;;;24.10;99.90;;;;;;5108539;27;20748;-76
2022/09/02 11:09:20;;;;;;;5.22;1.30;;;24.30;99.90;;;;;;5070310;28;20415;-76
2022/09/02 11:12:10;;;;;;;4.97;1.33;;;24.20;99.90;;;;;;5070253;28;20412;-76
2022/09/02 11:15:20;;;;;;;4.72;1.40;;;23.90;99.90;;;;;;5070517;28;20435;-76
2022/09/02 11:18:03;;;;;;;3.83;1.27;;;24.20;99.90;;;;;;4997950;28;20475;-77
2022/09/02 11:20:29;;;;;;;2.83;1.17;;;24.50;99.90;;;;;;4985261;28;20446;-76
2022/09/02 11:23:12;;;;;;;3.83;1.30;;;24.50;99.90;;;;;;5033111;28;20419;-77
2022/09/02 11:26:29;;;;;;;3.22;1.20;;;24.70;99.90;;;;;;5071113;27;20915;-77
2022/09/02 11:29:12;;;;;;;4.35;1.15;;;24.80;99.90;;;;;;5070876;28;20416;-77
2022/09/02 11:31:43;;;;;;;4.20;1.30;;;25.30;99.80;;;;;;5075818;28;20430;-77
2022/09/02 11:34:16;;;;;;;6.90;1.58;;;24.50;99.90;;;;;;5087068;27;20952;-76
2022/09/02 11:36:45;;;;;;;8.68;1.50;;;24.60;99.90;;;;;;5100304;27;20387;-77
2022/09/02 11:39:26;;;;;;;3.30;1.30;;;24.50;99.90;;;;;;5082285;27;20436;-77
2022/09/02 11:42:27;;;;;;;2.92;1.38;;;24.70;99.10;;;;;;5076357;28;20416;-78
2022/09/02 11:45:30;;;;;;;5.40;1.30;;;24.50;99.40;;;;;;5092906;27;20450;-78
2022/09/02 11:48:33;;;;;;;7.03;1.35;;;24.60;99.40;;;;;;5080690;28;20418;-80
2022/09/02 11:51:22;;;;;;;4.30;1.20;;;24.60;99.30;;;;;;5076517;27;20840;-79
2022/09/02 11:53:48;;;;;;;6.22;1.20;;;24.90;98.90;;;;;;5067169;28;20436;-79
2022/09/02 11:56:20;;;;;;;4.67;1.30;;;24.60;99.00;;;;;;5092007;27;20471;-78
2022/09/02 11:58:50;;;;;;;3.08;1.20;;;24.90;99.20;;;;;;5075269;28;20441;-79
2022/09/02 12:01:30;;;;;;;4.43;1.50;;;23.40;98.60;;;;;;5093317;27;20913;-78
2022/09/02 12:04:25;;;;;;;3.33;1.27;;;24.70;98.00;;;;;;5075383;28;20412;-79
2022/09/02 12:07:09;;;;;;;3.92;1.20;;;24.80;97.40;;;;;;5076971;28;20403;-78
2022/09/02 12:09:45;;;;;;;5.20;1.45;;;24.80;97.80;;;;;;5111865;28;20422;-78
2022/09/02 12:12:37;;;;;;;2.63;1.30;;;24.80;98.30;;;;;;5079301;27;20441;-78
2022/09/02 12:15:03;;;;;;;4.70;1.20;;;24.80;97.90;;;;;;5118018;27;20418;-77
2022/09/02 12:17:36;;;;;;;5.90;1.40;;;25.00;98.60;;;;;;5087283;28;20475;-77
2022/09/02 12:20:03;;;;;;;10.00;1.40;;;25.10;98.10;;;;;;5102895;28;20411;-77
2022/09/02 12:22:37;;;;;;;4.40;1.27;;;25.50;98.20;;;;;;5057368;28;20456;-77
2022/09/02 12:25:24;;;;;;;5.18;1.40;;;25.10;97.90;;;;;;5059446;28;20486;-77
2022/09/02 12:28:13;;;;;;;6.20;1.50;;;25.30;97.70;;;;;;5081670;28;20769;-77
2022/09/02 12:31:07;;;;;;;4.30;1.50;;;25.60;97.00;;;;;;5092148;28;20434;-77
2022/09/02 12:33:38;;;;;;;5.63;1.48;;;25.50;97.50;;;;;;5097747;28;20424;-76
2022/09/02 12:36:06;;;;;;;9.40;1.63;;;25.40;97.00;;;;;;5099372;27;21040;-79
2022/09/02 12:38:35;;;;;;;6.20;1.43;;;25.50;97.50;;;;;;5112710;27;20405;-77
2022/09/02 12:41:04;;;;;;;3.80;1.30;;;25.00;96.60;;;;;;5093591;28;20481;-77
2022/09/02 12:43:43;;;;;;;6.40;1.30;;;25.20;97.40;;;;;;5108330;27;20435;-77
2022/09/02 12:46:16;;;;;;;4.35;1.25;;;25.60;97.60;;;;;;5088632;28;20420;-79
2022/09/02 12:48:48;;;;;;;6.60;1.42;;;25.30;96.30;;;;;;5091239;27;20459;-79
2022/09/02 12:51:52;;;;;;;3.97;1.37;;;25.30;97.00;;;;;;5103549;28;20427;-79
2022/09/02 12:54:28;;;;;;;2.88;1.40;;;25.20;96.50;;;;;;5087359;28;20938;-78
2022/09/02 12:57:17;;;;;;;4.18;1.33;;;25.60;96.20;;;;;;5093057;28;20412;-79
2022/09/02 12:59:47;;;;;;;4.20;1.40;;;25.50;96.00;;;;;;5050948;28;20412;-79
2022/09/02 13:02:55;;;;;;;7.45;1.58;;;25.40;96.40;;;;;;5079043;27;20448;-78
2022/09/02 13:05:32;;;;;;;4.10;1.48;;;25.40;95.80;;;;;;5092029;28;20411;-78
2022/09/02 13:08:43;;;;;;;5.57;1.30;;;23.90;95.10;;;;;;5072787;28;20420;-78
2022/09/02 13:11:27;;;;;;;3.73;1.33;;;24.80;95.70;;;;;;5075064;27;20932;-78
2022/09/02 13:14:02;;;;;;;8.05;1.88;;;25.10;96.40;;;;;;5115606;27;20422;-78
2022/09/02 13:16:46;;;;;;;4.57;1.50;;;25.60;95.80;;;;;;5096935;27;20410;-77
2022/09/02 13:19:44;;;;;;;3.47;1.40;;;25.80;95.60;;;;;;5105355;27;20755;-78
2022/09/02 13:22:41;;;;;;;3.57;1.43;;;26.20;95.40;;;;;;5060726;27;20420;-78
2022/09/02 13:25:51;;;;;;;5.32;1.30;;;25.60;95.60;;;;;;5110020;27;20407;-77
2022/09/02 13:28:38;;;;;;;3.63;1.35;;;26.50;95.50;;;;;;5076966;28;20553;-78
2022/09/02 13:31:22;;;;;;;3.50;1.30;;;26.20;95.20;;;;;;5082653;28;20771;-78
2022/09/02 13:34:04;;;;;;;4.47;1.50;;;25.80;95.90;;;;;;5094866;28;20431;-78
2022/09/02 13:36:50;;;;;;;3.67;1.30;;;25.80;95.10;;;;;;5098078;27;20416;-78
2022/09/02 13:39:23;;;;;;;4.10;1.40;;;24.50;95.40;;;;;;5100023;27;20424;-78
2022/09/02 13:41:49;;;;;;;3.97;1.60;;;25.30;96.10;;;;;;5114740;27;21116;-79
2022/09/02 13:44:29;;;;;;;3.00;1.40;;;25.30;96.00;;;;;;5103409;28;20429;-78
2022/09/02 13:47:02;;;;;;;1.90;1.30;;;25.60;95.80;;;;;;5075576;27;20474;-79
2022/09/02 13:49:40;;;;;;;2.45;1.30;;;25.70;95.50;;;;;;5079502;28;20449;-78
2022/09/02 13:52:13;;;;;;;4.90;1.33;;;26.00;96.10;;;;;;5120858;27;20406;-78
2022/09/02 13:54:44;;;;;;;4.40;1.30;;;25.50;96.30;;;;;;5100067;27;20454;-77
2022/09/02 13:57:16;;;;;;;2.60;1.45;;;25.70;96.50;;;;;;5095657;27;20450;-78
2022/09/02 13:59:53;;;;;;;3.78;1.60;;;26.50;96.70;;;;;;5091486;28;20424;-78
2022/09/02 14:02:33;;;;;;;4.93;1.60;;;25.80;96.80;;;;;;5094796;28;20413;-78
2022/09/02 14:05:14;;;;;;;3.53;1.30;;;25.70;96.50;;;;;;5109254;27;20510;-78
2022/09/02 14:07:46;;;;;;;6.38;1.50;;;25.70;96.10;;;;;;5076150;28;20431;-77
2022/09/02 14:10:17;;;;;;;4.10;1.40;;;25.40;95.30;;;;;;5090720;28;20420;-76
2022/09/02 14:12:44;;;;;;;3.60;1.50;;;25.30;96.00;;;;;;5109376;28;20870;-77
2022/09/02 14:15:14;;;;;;;6.45;1.40;;;25.20;96.30;;;;;;5081083;28;20411;-77
2022/09/02 14:17:39;;;;;;;5.13;1.40;;;25.20;96.60;;;;;;5068590;28;20416;-76
2022/09/02 14:20:19;;;;;;;4.88;1.50;;;25.40;96.10;;;;;;5094572;28;20447;-77
2022/09/02 14:22:58;;;;;;;6.10;1.52;;;25.40;95.70;;;;;;5108453;28;20426;-76
2022/09/02 14:25:32;;;;;;;5.70;1.65;;;25.50;96.10;;;;;;5116961;28;20420;-77
2022/09/02 14:27:59;;;;;;;4.72;1.30;;;25.60;95.90;;;;;;5086515;28;20420;-77
2022/09/02 14:30:37;;;;;;;5.82;1.70;;;25.80;96.20;;;;;;5081824;28;20914;-78
2022/09/02 14:33:40;;;;;;;3.95;1.40;;;26.20;95.50;;;;;;5085318;28;20408;-77
2022/09/02 14:36:08;;;;;;;2.55;1.48;;;25.90;95.50;;;;;;5103611;27;20868;-77
2022/09/02 14:38:48;;;;;;;5.35;1.50;;;25.50;95.50;;;;;;5109048;28;20764;-78
2022/09/02 14:41:33;;;;;;;2.85;1.70;;;25.30;95.50;;;;;;5088610;28;20435;-77
2022/09/02 14:44:06;;;;;;;4.17;1.60;;;25.40;94.90;;;;;;5093774;28;20462;-77
2022/09/02 14:46:47;;;;;;;4.45;1.77;;;25.00;95.40;;;;;;5074213;28;20429;-76
2022/09/02 14:49:26;;;;;;;2.83;1.55;;;25.20;95.60;;;;;;5103781;28;20420;-77
2022/09/02 14:52:04;;;;;;;5.88;1.60;;;25.40;95.60;;;;;;5087478;28;20916;-78
2022/09/02 14:54:38;;;;;;;5.95;1.55;;;25.60;95.10;;;;;;5110808;27;20423;-77
2022/09/02 14:57:27;;;;;;;4.43;1.40;;;25.40;96.00;;;;;;5098967;28;20416;-77
2022/09/02 14:59:55;;;;;;;3.75;1.42;;;25.30;95.60;;;;;;5070969;28;20412;-77
2022/09/02 15:02:54;;;;;;;3.80;1.58;;;25.40;96.30;;;;;;5097059;28;20399;-77
2022/09/02 15:05:23;;;;;;;5.55;1.50;;;25.30;96.20;;;;;;5096402;28;20857;-77
2022/09/02 15:07:48;;;;;;;3.38;1.50;;;25.10;96.10;;;;;;5062150;28;20430;-78
2022/09/02 15:10:14;;;;;;;2.45;1.30;;;25.00;96.20;;;;;;5095000;28;20519;-78
2022/09/02 15:12:53;;;;;;;4.27;1.43;;;25.20;96.30;;;;;;5090077;28;20426;-78
2022/09/02 15:15:20;;;;;;;3.20;1.40;;;25.30;96.30;;;;;;5079903;28;20417;-78
2022/09/02 15:17:47;;;;;;;4.05;1.60;;;26.20;96.30;;;;;;5103868;27;20419;-78
2022/09/02 15:20:13;;;;;;;4.60;1.65;;;25.10;96.10;;;;;;5094704;28;20817;-78
2022/09/02 15:22:38;;;;;;;4.50;1.40;;;24.90;96.10;;;;;;5100207;28;20408;-78
2022/09/02 15:25:06;;;;;;;5.60;1.57;;;25.00;96.20;;;;;;5079800;28;20767;-78
2022/09/02 15:27:36;;;;;;;4.97;1.60;;;25.20;96.00;;;;;;5114322;27;20398;-79
2022/09/02 15:30:04;;;;;;;2.65;1.60;;;25.00;95.90;;;;;;5111395;27;20439;-79
2022/09/02 15:32:30;;;;;;;5.30;1.58;;;25.00;96.10;;;;;;5090315;28;20495;-77
2022/09/02 15:34:55;;;;;;;2.83;1.50;;;24.80;96.20;;;;;;5068309;27;20414;-78
2022/09/02 15:37:21;;;;;;;3.47;1.60;;;25.00;96.50;;;;;;5082257;27;20885;-78
2022/09/02 15:39:50;;;;;;;2.65;1.30;;;25.00;96.60;;;;;;5095088;27;20437;-78
2022/09/02 15:42:17;;;;;;;4.28;1.42;;;24.90;96.40;;;;;;5091511;27;20410;-79
2022/09/02 15:44:43;;;;;;;3.80;1.45;;;24.90;96.40;;;;;;5051743;27;20482;-79
2022/09/02 15:47:08;;;;;;;3.75;1.50;;;25.20;96.00;;;;;;5102798;27;20429;-79
2022/09/02 15:49:34;;;;;;;7.07;1.50;;;25.30;95.90;;;;;;5078440;28;20420;-79
2022/09/02 15:52:01;;;;;;;4.53;1.50;;;25.00;95.70;;;;;;5078199;27;20421;-78
2022/09/02 15:54:28;;;;;;;4.60;1.40;;;24.90;95.90;;;;;;5096794;28;20513;-79
2022/09/02 15:56:56;;;;;;;2.55;1.40;;;24.80;96.30;;;;;;5094059;28;20487;-78
2022/09/02 15:59:22;;;;;;;5.05;1.40;;;25.00;95.90;;;;;;5106699;28;20505;-77
2022/09/02 16:01:50;;;;;;;4.70;1.80;;;25.10;96.00;;;;;;5085344;28;20408;-76
2022/09/02 16:04:16;;;;;;;5.70;1.70;;;25.20;95.60;;;;;;5098932;28;20895;-77
2022/09/02 16:06:44;;;;;;;3.28;1.40;;;25.40;95.70;;;;;;5069642;27;20454;-76
2022/09/02 16:09:12;;;;;;;4.63;1.40;;;25.30;95.90;;;;;;5084328;27;20424;-76
2022/09/02 16:11:39;;;;;;;4.65;1.40;;;25.20;95.60;;;;;;5112996;27;20426;-76
2022/09/02 16:14:05;;;;;;;4.18;1.67;;;25.10;95.60;;;;;;5088079;28;20424;-77
2022/09/02 16:16:32;;;;;;;4.28;1.48;;;24.90;95.60;;;;;;5071702;27;20490;-77
2022/09/02 16:18:58;;;;;;;3.38;1.40;;;25.00;95.50;;;;;;5096759;28;20419;-77
2022/09/02 16:21:24;;;;;;;3.47;1.60;;;24.90;95.50;;;;;;5082443;27;20425;-77
2022/09/02 16:23:51;;;;;;;5.18;1.75;;;24.70;95.50;;;;;;5071533;27;20426;-77
2022/09/02 16:26:23;;;;;;;5.17;1.50;;;24.50;95.60;;;;;;5094873;28;20408;-77
2022/09/02 16:28:50;;;;;;;3.60;1.70;;;24.60;96.00;;;;;;5090329;28;20466;-77
2022/09/02 16:31:18;;;;;;;4.10;1.53;;;24.90;95.90;;;;;;5105513;27;20490;-78
2022/09/02 16:34:06;;;;;;;4.35;1.50;;;24.70;96.10;;;;;;5082732;27;20435;-76
2022/09/02 16:36:39;;;;;;;3.90;1.50;;;25.00;96.30;;;;;;5085515;28;20502;-76
2022/09/02 16:39:05;;;;;;;5.50;1.50;;;24.80;95.60;;;;;;5088817;27;20404;-77
2022/09/02 16:41:37;;;;;;;6.50;1.52;;;24.80;96.20;;;;;;5094098;27;20457;-76
2022/09/02 16:44:10;;;;;;;3.67;1.37;;;24.80;95.90;;;;;;5073031;28;20417;-76
2022/09/02 16:46:39;;;;;;;3.40;1.50;;;24.70;96.70;;;;;;5074239;28;20409;-77
2022/09/02 16:49:06;;;;;;;5.85;1.60;;;24.80;96.90;;;;;;5058034;28;20941;-77
2022/09/02 16:51:33;;;;;;;6.32;1.48;;;24.80;97.00;;;;;;5075546;27;20443;-75
2022/09/02 16:54:01;;;;;;;6.03;1.70;;;24.90;96.90;;;;;;5098616;27;20770;-76
2022/09/02 16:56:29;;;;;;;5.07;1.58;;;24.80;96.90;;;;;;5092955;27;20889;-78
2022/09/02 16:58:55;;;;;;;3.55;1.55;;;24.80;97.20;;;;;;5078510;28;20743;-76
2022/09/02 17:01:22;;;;;;;4.03;1.52;;;24.60;97.40;;;;;;5091521;28;20556;-76
2022/09/02 17:03:49;;;;;;;4.15;1.70;;;24.60;97.00;;;;;;5079223;27;20441;-77
2022/09/02 17:06:15;;;;;;;4.50;1.63;;;24.60;97.10;;;;;;5094411;27;20402;-77
2022/09/02 17:08:41;;;;;;;11.27;1.60;;;24.80;97.10;;;;;;5089917;27;20441;-77
2022/09/02 17:11:21;;;;;;;7.57;1.60;;;24.80;97.10;;;;;;5073036;28;20905;-77
2022/09/02 17:13:58;;;;;;;4.50;1.60;;;24.40;97.00;;;;;;5098305;27;20419;-78
2022/09/02 17:16:27;;;;;;;4.10;1.70;;;24.30;96.50;;;;;;5094365;27;20419;-77
2022/09/02 17:18:53;;;;;;;3.87;1.50;;;24.50;97.00;;;;;;5100981;28;20756;-78
2022/09/02 17:21:27;;;;;;;5.17;1.80;;;24.30;97.10;;;;;;5091721;27;20416;-78
2022/09/02 17:23:54;;;;;;;6.30;1.60;;;24.50;96.60;;;;;;5107765;27;20510;-78
2022/09/02 17:26:22;;;;;;;7.40;1.70;;;24.10;97.10;;;;;;5104549;28;20424;-78
2022/09/02 17:28:49;;;;;;;4.97;1.60;;;24.30;97.40;;;;;;5101504;27;20427;-77
2022/09/02 17:31:30;;;;;;;4.68;1.50;;;24.50;97.60;;;;;;5073118;27;20479;-77
2022/09/02 17:33:58;;;;;;;4.93;1.50;;;24.30;97.00;;;;;;5076647;27;20516;-77
2022/09/02 17:36:27;;;;;;;4.28;1.52;;;24.60;97.50;;;;;;5087035;27;20932;-76
2022/09/02 17:39:02;;;;;;;5.75;1.60;;;24.50;97.60;;;;;;5093674;27;20429;-77
2022/09/02 17:44:14;;;;;;;3.60;1.60;;;24.30;97.60;;;;;;5074983;28;20425;-76
2022/09/02 17:46:41;;;;;;;7.13;1.80;;;24.00;98.20;;;;;;5091237;28;20487;-77
2022/09/02 17:49:07;;;;;;;3.13;1.40;;;23.90;98.20;;;;;;5095859;28;20404;-77
2022/09/02 17:51:33;;;;;;;8.27;1.50;;;23.70;98.40;;;;;;5080708;28;20422;-77
2022/09/02 17:53:59;;;;;;;4.07;1.53;;;23.80;98.50;;;;;;5087154;28;20420;-77
2022/09/02 17:56:44;;;;;;;4.93;2.00;;;23.80;98.70;;;;;;5097721;28;20916;-77
2022/09/02 17:59:29;;;;;;;6.32;1.90;;;23.60;98.90;;;;;;5093121;28;20488;-77
2022/09/02 18:02:09;;;;;;;5.72;1.65;;;23.50;99.00;;;;;;5068648;28;20417;-77
2022/09/02 18:05:01;;;;;;;4.45;1.70;;;23.80;98.50;;;;;;5070315;28;20438;-77
2022/09/02 18:07:48;;;;;;;5.45;1.77;;;23.20;98.50;;;;;;5063330;28;20419;-77